createdAt,value
2023-03-12T00:00:11.247Z,6.40
2023-03-12T00:02:39.048Z,6.40
2023-03-12T00:05:07.259Z,6.50
2023-03-12T00:07:36.617Z,6.50
2023-03-12T00:10:05.775Z,6.60
2023-03-12T00:12:33.763Z,6.60
2023-03-12T00:15:01.610Z,6.60
2023-03-12T00:17:30.405Z,6.60
2023-03-12T00:19:57.807Z,6.60
2023-03-12T00:22:25.913Z,6.60
2023-03-12T00:24:55.203Z,6.60
2023-03-12T00:27:23.416Z,6.60
2023-03-12T00:29:51.008Z,6.70
2023-03-12T00:32:18.616Z,6.70
2023-03-12T00:34:52.017Z,6.70
2023-03-12T00:37:19.810Z,6.80
2023-03-12T00:39:47.397Z,6.90
2023-03-12T00:42:15.266Z,6.90
2023-03-12T00:44:44.265Z,7.00
2023-03-12T00:47:12.465Z,7.00
2023-03-12T00:49:40.322Z,7.10
2023-03-12T00:52:08.078Z,7.10
2023-03-12T00:54:35.398Z,7.20
2023-03-12T00:57:02.749Z,7.30
2023-03-12T00:59:30.461Z,7.30
2023-03-12T01:01:58.022Z,7.30
2023-03-12T01:04:25.643Z,7.30
2023-03-12T01:06:53.258Z,7.40
2023-03-12T01:09:20.791Z,7.40
2023-03-12T01:11:48.197Z,7.40
2023-03-12T01:14:16.009Z,7.50
2023-03-12T01:16:43.399Z,7.50
2023-03-12T01:19:11.123Z,7.50
2023-03-12T01:21:38.901Z,7.50
2023-03-12T01:24:06.856Z,7.60
2023-03-12T01:26:34.331Z,7.60
2023-03-12T01:29:02.000Z,7.60
2023-03-12T01:31:29.578Z,7.70
2023-03-12T01:33:57.034Z,7.70
2023-03-12T01:36:27.455Z,7.70
2023-03-12T01:38:57.151Z,7.80
2023-03-12T01:41:26.106Z,7.90
2023-03-12T01:43:54.064Z,7.90
2023-03-12T01:46:26.653Z,7.90
2023-03-12T01:49:11.153Z,7.90
2023-03-12T01:51:46.874Z,7.90
2023-03-12T01:54:25.287Z,7.90
2023-03-12T01:56:54.185Z,7.90
2023-03-12T01:59:32.890Z,8.00
2023-03-12T02:02:00.960Z,8.00
2023-03-12T02:04:31.139Z,8.00
2023-03-12T02:07:03.055Z,8.00
2023-03-12T02:09:33.803Z,8.10
2023-03-12T02:12:01.337Z,8.10
2023-03-12T02:14:29.221Z,8.10
2023-03-12T02:16:56.846Z,8.10
2023-03-12T02:19:50.259Z,8.10
2023-03-12T02:22:19.140Z,8.20
2023-03-12T02:24:51.240Z,8.30
2023-03-12T02:27:19.944Z,8.20
2023-03-12T02:29:47.631Z,8.20
2023-03-12T02:32:23.322Z,8.20
2023-03-12T02:34:50.941Z,8.30
2023-03-12T02:37:19.945Z,8.30
2023-03-12T02:40:00.054Z,8.30
2023-03-12T02:42:27.878Z,8.30
2023-03-12T02:44:55.496Z,8.30
2023-03-12T02:47:23.648Z,8.30
2023-03-12T02:49:52.692Z,8.40
2023-03-12T02:52:20.176Z,8.40
2023-03-12T02:54:47.845Z,8.40
2023-03-12T02:57:15.360Z,8.40
2023-03-12T02:59:42.936Z,8.50
2023-03-12T03:02:12.611Z,8.50
2023-03-12T03:04:40.143Z,8.60
2023-03-12T03:07:07.846Z,8.60
2023-03-12T03:09:35.453Z,8.70
2023-03-12T03:12:02.975Z,8.70
2023-03-12T03:14:30.241Z,8.70
2023-03-12T03:16:57.731Z,8.80
2023-03-12T03:19:25.348Z,8.80
2023-03-12T03:21:52.796Z,8.80
2023-03-12T03:24:20.145Z,8.80
2023-03-12T03:26:47.652Z,8.80
2023-03-12T03:29:15.382Z,8.80
2023-03-12T03:31:43.058Z,8.80
2023-03-12T03:34:10.761Z,8.90
2023-03-12T03:36:38.197Z,8.90
2023-03-12T03:39:05.555Z,8.90
2023-03-12T03:41:33.289Z,8.80
2023-03-12T03:44:00.700Z,8.80
2023-03-12T03:46:28.148Z,8.70
2023-03-12T03:48:55.745Z,8.70
2023-03-12T03:51:23.293Z,8.70
2023-03-12T03:53:50.644Z,8.70
2023-03-12T03:56:18.539Z,8.60
2023-03-12T03:58:45.902Z,8.60
2023-03-12T04:01:15.034Z,8.60
2023-03-12T04:03:42.627Z,8.60
2023-03-12T04:06:11.135Z,8.50
2023-03-12T04:08:38.902Z,8.50
2023-03-12T04:11:18.594Z,8.50
2023-03-12T04:13:47.145Z,8.50
2023-03-12T04:16:15.785Z,8.50
2023-03-12T04:18:43.638Z,8.50
2023-03-12T04:21:12.546Z,8.50
2023-03-12T04:23:40.092Z,8.50
2023-03-12T04:26:07.990Z,8.50
2023-03-12T04:28:36.486Z,8.50
2023-03-12T04:31:07.059Z,8.50
2023-03-12T04:33:36.733Z,8.50
2023-03-12T04:36:05.075Z,8.50
2023-03-12T04:38:32.776Z,8.50
2023-03-12T04:41:05.559Z,8.40
2023-03-12T04:43:33.841Z,8.40
2023-03-12T04:46:02.444Z,8.40
2023-03-12T04:48:30.047Z,8.40
2023-03-12T04:50:57.486Z,8.30
2023-03-12T04:53:25.375Z,8.30
2023-03-12T04:55:53.123Z,8.30
2023-03-12T04:58:21.755Z,8.30
2023-03-12T05:00:50.403Z,8.40
2023-03-12T05:03:18.402Z,8.30
2023-03-12T05:05:45.749Z,8.30
2023-03-12T05:08:13.262Z,8.30
2023-03-12T05:10:40.807Z,8.30
2023-03-12T05:13:19.589Z,8.40
2023-03-12T05:15:47.750Z,8.40
2023-03-12T05:18:15.184Z,8.40
2023-03-12T05:20:42.702Z,8.30
2023-03-12T05:23:10.417Z,8.30
2023-03-12T05:25:41.645Z,8.30
2023-03-12T05:28:09.310Z,8.30
2023-03-12T05:30:36.868Z,8.30
2023-03-12T05:33:04.314Z,8.40
2023-03-12T05:35:31.996Z,8.40
2023-03-12T05:37:59.694Z,8.40
2023-03-12T05:40:27.140Z,8.40
2023-03-12T05:42:54.585Z,8.40
2023-03-12T05:45:22.138Z,8.40
2023-03-12T05:47:49.386Z,8.40
2023-03-12T05:50:16.883Z,8.40
2023-03-12T05:52:44.558Z,8.40
2023-03-12T05:55:12.057Z,8.40
2023-03-12T05:57:39.439Z,8.40
2023-03-12T06:00:07.585Z,8.30
2023-03-12T06:02:35.394Z,8.40
2023-03-12T06:05:02.987Z,8.30
2023-03-12T06:07:30.638Z,8.30
2023-03-12T06:09:59.888Z,8.30
2023-03-12T06:12:27.577Z,8.30
2023-03-12T06:14:55.191Z,8.30
2023-03-12T06:17:22.676Z,8.30
2023-03-12T06:19:53.589Z,8.30
2023-03-12T06:22:21.037Z,8.20
2023-03-12T06:24:48.601Z,8.20
2023-03-12T06:27:17.194Z,8.20
2023-03-12T06:29:47.241Z,8.20
2023-03-12T06:32:14.723Z,8.20
2023-03-12T06:34:42.133Z,8.10
2023-03-12T06:37:10.085Z,8.20
2023-03-12T06:39:38.266Z,8.20
2023-03-12T06:42:06.106Z,8.30
2023-03-12T06:44:33.587Z,8.30
2023-03-12T06:47:01.179Z,8.10
2023-03-12T06:49:32.195Z,8.10
2023-03-12T06:51:59.749Z,8.10
2023-03-12T06:54:27.231Z,8.10
2023-03-12T06:56:54.754Z,8.10
2023-03-12T06:59:22.575Z,8.10
2023-03-12T07:01:50.032Z,8.10
2023-03-12T07:04:17.850Z,8.10
2023-03-12T07:06:50.444Z,8.10
2023-03-12T07:09:18.983Z,8.10
2023-03-12T07:11:46.685Z,8.10
2023-03-12T07:14:13.987Z,8.10
2023-03-12T07:16:41.331Z,8.20
2023-03-12T07:19:08.942Z,8.20
2023-03-12T07:21:36.538Z,8.30
2023-03-12T07:24:07.190Z,8.30
2023-03-12T07:26:35.746Z,8.30
2023-03-12T07:29:05.113Z,8.40
2023-03-12T07:31:32.523Z,8.40
2023-03-12T07:34:00.018Z,8.40
2023-03-12T07:36:27.591Z,8.50
2023-03-12T07:38:55.276Z,8.50
2023-03-12T07:41:22.850Z,8.60
2023-03-12T07:43:50.180Z,8.60
2023-03-12T07:46:17.765Z,8.70
2023-03-12T07:48:45.332Z,8.70
2023-03-12T07:51:12.889Z,8.70
2023-03-12T07:53:40.186Z,8.70
2023-03-12T07:56:08.029Z,8.70
2023-03-12T07:58:38.069Z,8.80
2023-03-12T08:01:07.922Z,8.80
2023-03-12T08:03:39.178Z,8.80
2023-03-12T08:06:07.017Z,8.90
2023-03-12T08:08:36.913Z,8.90
2023-03-12T08:11:05.909Z,9.00
2023-03-12T08:13:33.693Z,9.00
2023-03-12T08:16:01.146Z,9.00
2023-03-12T08:18:28.438Z,9.10
2023-03-12T08:20:55.838Z,9.20
2023-03-12T08:23:24.778Z,9.20
2023-03-12T08:25:53.038Z,9.20
2023-03-12T08:28:22.831Z,9.30
2023-03-12T08:30:54.159Z,9.30
2023-03-12T08:33:22.929Z,9.30
2023-03-12T08:35:50.916Z,9.30
2023-03-12T08:38:18.823Z,9.30
2023-03-12T08:40:46.337Z,9.40
2023-03-12T08:43:13.830Z,9.40
2023-03-12T08:45:41.236Z,9.50
2023-03-12T08:48:08.730Z,9.50
2023-03-12T08:50:37.582Z,9.60
2023-03-12T08:53:05.442Z,9.60
2023-03-12T08:55:32.730Z,9.70
2023-03-12T08:58:02.658Z,9.70
2023-03-12T09:00:31.644Z,9.80
2023-03-12T09:03:02.253Z,9.90
2023-03-12T09:05:31.423Z,10.00
2023-03-12T09:08:00.324Z,10.10
2023-03-12T09:10:31.230Z,10.00
2023-03-12T09:13:00.211Z,10.10
2023-03-12T09:15:28.559Z,10.00
2023-03-12T09:17:57.147Z,10.10
2023-03-12T09:20:25.935Z,10.10
2023-03-12T09:22:54.397Z,10.20
2023-03-12T09:25:23.666Z,10.10
2023-03-12T09:27:52.622Z,10.20
2023-03-12T09:30:25.308Z,10.20
2023-03-12T09:32:54.782Z,10.20
2023-03-12T09:35:22.685Z,10.20
2023-03-12T09:37:51.432Z,10.20
2023-03-12T09:40:24.782Z,10.30
2023-03-12T09:43:27.961Z,10.30
2023-03-12T09:45:57.060Z,10.40
2023-03-12T09:48:37.509Z,10.40
2023-03-12T09:51:45.766Z,10.40
2023-03-12T09:54:29.868Z,10.50
2023-03-12T09:57:02.167Z,10.60
2023-03-12T09:59:29.785Z,10.50
2023-03-12T10:02:01.522Z,10.50
2023-03-12T10:04:58.951Z,10.60
2023-03-12T10:07:40.572Z,10.60
2023-03-12T10:10:10.872Z,10.70
2023-03-12T10:12:47.724Z,10.80
2023-03-12T10:15:33.715Z,10.80
2023-03-12T10:18:08.122Z,10.90
2023-03-12T10:20:55.806Z,10.90
2023-03-12T10:23:44.378Z,10.90
2023-03-12T10:26:19.078Z,11.00
2023-03-12T10:28:51.872Z,11.00
2023-03-12T10:31:36.966Z,11.10
2023-03-12T10:34:15.456Z,11.10
2023-03-12T10:36:46.667Z,11.10
2023-03-12T10:39:18.017Z,11.20
2023-03-12T10:41:46.986Z,11.30
2023-03-12T10:44:21.976Z,11.30
2023-03-12T10:46:56.364Z,11.30
2023-03-12T10:49:30.071Z,11.20
2023-03-12T10:52:02.318Z,11.20
2023-03-12T10:54:31.667Z,11.20
2023-03-12T10:56:59.259Z,11.10
2023-03-12T10:59:30.814Z,11.20
2023-03-12T11:01:59.111Z,11.20
2023-03-12T11:04:30.504Z,11.30
2023-03-12T11:07:18.762Z,11.40
2023-03-12T11:09:46.419Z,11.60
2023-03-12T11:12:24.527Z,11.60
2023-03-12T11:14:52.170Z,11.60
2023-03-12T11:17:25.967Z,11.70
2023-03-12T11:19:53.864Z,11.70
2023-03-12T11:22:33.615Z,11.70
2023-03-12T11:25:06.080Z,11.80
2023-03-12T11:27:49.961Z,11.90
2023-03-12T11:30:25.277Z,11.90
2023-03-12T11:32:53.192Z,12.00
2023-03-12T11:35:46.832Z,12.00
2023-03-12T11:38:26.917Z,12.00
2023-03-12T11:41:18.467Z,12.00
2023-03-12T11:44:15.029Z,11.90
2023-03-12T11:47:10.409Z,11.90
2023-03-12T11:49:49.294Z,11.80
2023-03-12T11:52:54.564Z,11.80
2023-03-12T11:55:24.674Z,11.70
2023-03-12T11:58:08.896Z,11.70
2023-03-12T12:00:49.166Z,11.70
2023-03-12T12:03:59.016Z,11.70
2023-03-12T12:06:46.917Z,11.80
2023-03-12T12:09:32.365Z,11.80
2023-03-12T12:12:11.712Z,11.90
2023-03-12T12:15:04.859Z,12.00
2023-03-12T12:17:45.287Z,12.10
2023-03-12T12:20:27.354Z,12.10
2023-03-12T12:22:55.059Z,12.10
2023-03-12T12:25:57.685Z,12.10
2023-03-12T12:28:49.056Z,12.10
2023-03-12T12:31:31.122Z,12.20
2023-03-12T12:34:07.832Z,12.20
2023-03-12T12:36:36.822Z,12.30
2023-03-12T12:39:15.261Z,12.40
2023-03-12T12:41:51.418Z,12.40
2023-03-12T12:44:30.116Z,12.60
2023-03-12T12:47:02.678Z,13.10
2023-03-12T12:49:47.063Z,13.30
2023-03-12T12:52:20.917Z,13.40
2023-03-12T12:54:51.060Z,13.40
2023-03-12T12:57:38.150Z,13.30
2023-03-12T13:00:20.276Z,13.10
2023-03-12T13:02:49.063Z,13.40
2023-03-12T13:05:40.868Z,13.40
2023-03-12T13:08:11.811Z,13.30
2023-03-12T13:10:48.518Z,13.20
2023-03-12T13:13:27.169Z,13.10
2023-03-12T13:16:20.950Z,13.10
2023-03-12T13:18:59.937Z,13.00
2023-03-12T13:21:41.099Z,13.00
2023-03-12T13:24:18.314Z,13.60
2023-03-12T13:26:55.013Z,13.80
2023-03-12T13:29:40.118Z,14.20
2023-03-12T13:32:35.146Z,14.40
2023-03-12T13:35:36.384Z,14.10
2023-03-12T13:38:06.818Z,13.90
2023-03-12T13:40:36.840Z,13.60
2023-03-12T13:43:16.018Z,13.60
2023-03-12T13:46:01.780Z,13.40
2023-03-12T13:48:29.718Z,13.40
2023-03-12T13:51:11.446Z,13.40
2023-03-12T13:53:40.748Z,13.50
2023-03-12T13:56:12.787Z,13.50
2023-03-12T13:59:05.816Z,13.40
2023-03-12T14:01:57.669Z,13.30
2023-03-12T14:04:40.918Z,13.30
2023-03-12T14:07:11.167Z,13.20
2023-03-12T14:10:07.027Z,13.20
2023-03-12T14:12:35.826Z,13.20
2023-03-12T14:15:20.311Z,13.20
2023-03-12T14:17:59.625Z,13.20
2023-03-12T14:20:28.367Z,13.20
2023-03-12T14:23:04.410Z,13.20
2023-03-12T14:25:36.775Z,13.30
2023-03-12T14:28:11.517Z,13.30
2023-03-12T14:30:50.225Z,13.30
2023-03-12T14:33:19.078Z,13.30
2023-03-12T14:36:07.813Z,13.30
2023-03-12T14:38:42.770Z,13.30
2023-03-12T14:41:15.914Z,13.20
2023-03-12T14:43:44.226Z,13.20
2023-03-12T14:46:23.974Z,13.30
2023-03-12T14:48:54.929Z,13.30
2023-03-12T14:51:24.655Z,13.30
2023-03-12T14:53:53.211Z,13.20
2023-03-12T14:56:32.934Z,13.10
2023-03-12T14:59:20.600Z,13.10
2023-03-12T15:01:48.500Z,13.00
2023-03-12T15:04:20.554Z,12.90
2023-03-12T15:06:52.557Z,12.90
2023-03-12T15:09:26.186Z,12.90
2023-03-12T15:11:58.775Z,12.90
2023-03-12T15:14:29.256Z,12.80
2023-03-12T15:17:00.350Z,12.90
2023-03-12T15:19:32.747Z,12.80
2023-03-12T15:22:00.627Z,12.80
2023-03-12T15:24:34.411Z,12.80
2023-03-12T15:27:30.123Z,12.70
2023-03-12T15:29:59.359Z,12.60
2023-03-12T15:32:28.090Z,12.50
2023-03-12T15:34:59.104Z,12.40
2023-03-12T15:37:38.387Z,12.40
2023-03-12T15:40:20.906Z,12.30
2023-03-12T15:42:49.466Z,12.30
2023-03-12T15:45:24.001Z,12.30
2023-03-12T15:47:54.453Z,12.30
2023-03-12T15:50:57.852Z,12.20
2023-03-12T15:53:33.717Z,12.30
2023-03-12T15:56:05.260Z,12.20
2023-03-12T15:58:35.364Z,12.20
2023-03-12T16:01:15.007Z,12.20
2023-03-12T16:03:45.593Z,12.10
2023-03-12T16:06:18.935Z,12.00
2023-03-12T16:08:59.553Z,12.00
2023-03-12T16:11:30.817Z,12.00
2023-03-12T16:14:04.208Z,12.00
2023-03-12T16:16:31.904Z,12.00
2023-03-12T16:18:59.527Z,11.90
2023-03-12T16:21:27.012Z,11.90
2023-03-12T16:23:54.514Z,11.80
2023-03-12T16:26:22.585Z,11.90
2023-03-12T16:28:49.882Z,11.70
2023-03-12T16:31:17.295Z,11.60
2023-03-12T16:33:45.025Z,11.70
2023-03-12T16:36:17.007Z,11.60
2023-03-12T16:38:45.357Z,11.60
2023-03-12T16:41:20.022Z,11.60
2023-03-12T16:43:50.956Z,11.50
2023-03-12T16:46:20.742Z,11.50
2023-03-12T16:48:53.657Z,11.40
2023-03-12T16:51:21.314Z,11.40
2023-03-12T16:53:58.539Z,11.40
2023-03-12T16:56:32.766Z,11.40
2023-03-12T16:59:05.301Z,11.40
2023-03-12T17:01:32.747Z,11.30
2023-03-12T17:04:00.333Z,11.30
2023-03-12T17:06:28.005Z,11.30
2023-03-12T17:08:55.434Z,11.20
2023-03-12T17:11:28.303Z,11.20
2023-03-12T17:13:59.742Z,11.20
2023-03-12T17:16:28.084Z,11.20
2023-03-12T17:18:55.660Z,11.20
2023-03-12T17:21:23.489Z,11.20
2023-03-12T17:23:51.159Z,11.20
2023-03-12T17:26:19.405Z,11.30
2023-03-12T17:28:47.500Z,11.20
2023-03-12T17:31:15.005Z,11.20
2023-03-12T17:33:43.319Z,11.20
2023-03-12T17:36:11.055Z,11.20
2023-03-12T17:38:40.243Z,11.20
2023-03-12T17:41:23.426Z,11.20
2023-03-12T17:43:52.909Z,11.20
2023-03-12T17:46:20.581Z,11.10
2023-03-12T17:48:47.918Z,11.10
2023-03-12T17:51:15.164Z,11.00
2023-03-12T17:53:42.645Z,11.00
2023-03-12T17:56:12.659Z,11.00
2023-03-12T17:58:41.030Z,11.00
2023-03-12T18:01:08.546Z,10.90
2023-03-12T18:03:37.089Z,10.90
2023-03-12T18:06:04.848Z,10.90
2023-03-12T18:08:32.185Z,10.80
2023-03-12T18:11:01.698Z,10.80
2023-03-12T18:13:30.471Z,10.70
2023-03-12T18:15:58.636Z,10.70
2023-03-12T18:18:27.350Z,10.70
2023-03-12T18:20:54.962Z,10.70
2023-03-12T18:23:23.758Z,10.70
2023-03-12T18:25:51.299Z,10.70
2023-03-12T18:28:19.360Z,10.60
2023-03-12T18:30:47.712Z,10.60
2023-03-12T18:33:15.112Z,10.60
2023-03-12T18:35:46.598Z,10.60
2023-03-12T18:38:14.209Z,10.60
2023-03-12T18:40:41.852Z,10.60
2023-03-12T18:43:09.198Z,10.60
2023-03-12T18:45:41.893Z,10.70
2023-03-12T18:48:09.709Z,10.60
2023-03-12T18:50:37.588Z,10.60
2023-03-12T18:53:05.121Z,10.60
2023-03-12T18:55:32.608Z,10.60
2023-03-12T18:58:00.107Z,10.60
2023-03-12T19:00:27.615Z,10.60
2023-03-12T19:02:55.139Z,10.60
2023-03-12T19:05:22.702Z,10.70
2023-03-12T19:07:50.151Z,10.70
2023-03-12T19:10:17.836Z,10.60
2023-03-12T19:12:52.560Z,10.60
2023-03-12T19:15:24.542Z,10.60
2023-03-12T19:17:52.666Z,10.60
2023-03-12T19:20:21.340Z,10.60
2023-03-12T19:22:48.958Z,10.60
2023-03-12T19:25:16.753Z,10.60
2023-03-12T19:27:44.335Z,10.60
2023-03-12T19:30:13.742Z,10.60
2023-03-12T19:32:44.192Z,10.60
2023-03-12T19:35:15.858Z,10.60
2023-03-12T19:37:44.315Z,10.60
2023-03-12T19:40:13.431Z,10.60
2023-03-12T19:42:41.279Z,10.60
2023-03-12T19:45:09.756Z,10.60
2023-03-12T19:47:37.568Z,10.50
2023-03-12T19:50:05.703Z,10.60
2023-03-12T19:52:33.228Z,10.50
2023-03-12T19:55:05.050Z,10.60
2023-03-12T19:57:34.243Z,10.60
2023-03-12T20:00:02.199Z,10.60
2023-03-12T20:02:31.004Z,10.60
2023-03-12T20:04:59.415Z,10.60
2023-03-12T20:07:28.877Z,10.60
2023-03-12T20:10:02.373Z,10.50
2023-03-12T20:12:30.464Z,10.50
2023-03-12T20:14:58.349Z,10.50
2023-03-12T20:17:26.421Z,10.60
2023-03-12T20:19:56.022Z,10.50
2023-03-12T20:22:26.903Z,10.60
2023-03-12T20:24:56.574Z,10.70
2023-03-12T20:27:24.495Z,10.70
2023-03-12T20:29:52.351Z,10.70
2023-03-12T20:32:21.800Z,10.70
2023-03-12T20:34:55.948Z,10.80
2023-03-12T20:37:31.767Z,10.80
2023-03-12T20:40:05.225Z,10.80
2023-03-12T20:42:34.535Z,10.90
2023-03-12T20:45:04.877Z,10.90
2023-03-12T20:47:34.613Z,10.90
2023-03-12T20:50:06.691Z,11.00
2023-03-12T20:52:34.486Z,11.10
2023-03-12T20:55:02.257Z,11.00
2023-03-12T20:57:37.928Z,11.10
2023-03-12T21:00:06.196Z,11.10
2023-03-12T21:02:34.309Z,11.10
2023-03-12T21:05:02.248Z,11.10
2023-03-12T21:07:29.956Z,11.10
2023-03-12T21:09:57.810Z,11.10
2023-03-12T21:12:29.718Z,11.10
2023-03-12T21:15:07.721Z,11.10
2023-03-12T21:17:40.554Z,11.10
2023-03-12T21:20:15.941Z,11.20
2023-03-12T21:22:48.484Z,11.10
2023-03-12T21:25:27.393Z,11.10
2023-03-12T21:27:57.314Z,11.20
2023-03-12T21:30:24.965Z,11.20
2023-03-12T21:32:52.777Z,11.20
2023-03-12T21:35:20.598Z,11.20
2023-03-12T21:37:49.411Z,11.20
2023-03-12T21:40:20.265Z,11.20
2023-03-12T21:42:48.232Z,11.20
2023-03-12T21:45:15.920Z,11.20
2023-03-12T21:47:43.308Z,11.20
2023-03-12T21:50:11.814Z,11.30
2023-03-12T21:52:43.132Z,11.30
2023-03-12T21:55:12.012Z,11.30
2023-03-12T21:57:40.348Z,11.30
2023-03-12T22:00:14.485Z,11.30
2023-03-12T22:02:44.190Z,11.30
2023-03-12T22:05:12.501Z,11.30
2023-03-12T22:07:40.298Z,11.40
2023-03-12T22:10:12.222Z,11.40
2023-03-12T22:12:41.465Z,11.40
2023-03-12T22:15:09.754Z,11.40
2023-03-12T22:17:37.795Z,11.50
2023-03-12T22:20:07.983Z,11.50
2023-03-12T22:22:35.654Z,11.50
2023-03-12T22:25:05.409Z,11.50
2023-03-12T22:27:35.242Z,11.50
2023-03-12T22:30:06.032Z,11.50
2023-03-12T22:32:33.840Z,11.50
2023-03-12T22:35:04.001Z,11.50
2023-03-12T22:37:33.988Z,11.50
2023-03-12T22:40:06.896Z,11.60
2023-03-12T22:42:42.610Z,11.60
2023-03-12T22:45:11.450Z,11.60
2023-03-12T22:47:38.998Z,11.60
2023-03-12T22:50:07.127Z,11.70
2023-03-12T22:52:35.484Z,11.70
2023-03-12T22:55:03.437Z,11.70
2023-03-12T22:57:39.420Z,11.80
2023-03-12T23:00:16.196Z,11.80
2023-03-12T23:02:43.703Z,11.80
2023-03-12T23:05:11.451Z,11.80
2023-03-12T23:07:38.787Z,11.90
2023-03-12T23:10:07.846Z,11.90
2023-03-12T23:12:35.956Z,12.00
2023-03-12T23:15:03.930Z,12.00
2023-03-12T23:17:31.201Z,12.00
2023-03-12T23:19:58.650Z,12.00
2023-03-12T23:22:26.745Z,12.10
2023-03-12T23:24:54.597Z,12.10
2023-03-12T23:27:22.238Z,12.20
2023-03-12T23:29:50.444Z,12.20
2023-03-12T23:32:20.996Z,12.20
2023-03-12T23:34:48.542Z,12.20
2023-03-12T23:37:16.437Z,12.20
2023-03-12T23:39:54.111Z,12.20
2023-03-12T23:42:23.000Z,12.20
2023-03-12T23:44:50.473Z,12.20
2023-03-12T23:47:17.852Z,12.20
2023-03-12T23:49:48.422Z,12.20
2023-03-12T23:52:16.150Z,12.20
2023-03-12T23:54:43.831Z,12.20
2023-03-12T23:57:11.600Z,12.20
2023-03-12T23:59:39.286Z,12.20
